sensor_id;sensor_type;location;lat;lon;timestamp;temperature;humidity
1055;DHT22;516;51.482;7.120;2023-07-13T00:04:30;17.10;94.60
1055;DHT22;516;51.482;7.120;2023-07-13T00:10:18;16.70;99.90
1055;DHT22;516;51.482;7.120;2023-07-13T00:16:07;16.50;99.90
1055;DHT22;516;51.482;7.120;2023-07-13T00:21:55;16.20;99.90
1055;DHT22;516;51.482;7.120;2023-07-13T00:27:43;16.10;99.90
1055;DHT22;516;51.482;7.120;2023-07-13T00:33:31;15.90;99.90
1055;DHT22;516;51.482;7.120;2023-07-13T00:39:20;15.90;99.90
1055;DHT22;516;51.482;7.120;2023-07-13T00:51:00;15.60;99.90
1055;DHT22;516;51.482;7.120;2023-07-13T00:56:52;15.60;99.90
1055;DHT22;516;51.482;7.120;2023-07-13T01:06:02;15.60;99.90
1055;DHT22;516;51.482;7.120;2023-07-13T01:11:51;15.30;99.90
1055;DHT22;516;51.482;7.120;2023-07-13T01:17:39;15.30;99.90
1055;DHT22;516;51.482;7.120;2023-07-13T01:23:28;15.20;99.90
1055;DHT22;516;51.482;7.120;2023-07-13T01:29:16;15.00;99.90
1055;DHT22;516;51.482;7.120;2023-07-13T01:35:04;15.00;99.90
1055;DHT22;516;51.482;7.120;2023-07-13T01:40:53;15.00;99.90
1055;DHT22;516;51.482;7.120;2023-07-13T01:46:40;14.90;99.90
1055;DHT22;516;51.482;7.120;2023-07-13T01:52:28;15.00;99.90
1055;DHT22;516;51.482;7.120;2023-07-13T01:58:16;14.90;99.90
1055;DHT22;516;51.482;7.120;2023-07-13T02:04:00;14.90;99.90
1055;DHT22;516;51.482;7.120;2023-07-13T02:09:47;14.80;99.90
1055;DHT22;516;51.482;7.120;2023-07-13T02:15:38;15.00;99.90
1055;DHT22;516;51.482;7.120;2023-07-13T02:21:27;14.90;99.90
1055;DHT22;516;51.482;7.120;2023-07-13T02:27:15;14.90;99.90
1055;DHT22;516;51.482;7.120;2023-07-13T02:33:03;14.90;99.90
1055;DHT22;516;51.482;7.120;2023-07-13T02:38:50;14.80;99.90
1055;DHT22;516;51.482;7.120;2023-07-13T02:44:38;14.60;99.90
1055;DHT22;516;51.482;7.120;2023-07-13T02:50:26;14.70;99.90
1055;DHT22;516;51.482;7.120;2023-07-13T02:56:14;14.60;99.90
1055;DHT22;516;51.482;7.120;2023-07-13T03:06:04;14.60;99.90
1055;DHT22;516;51.482;7.120;2023-07-13T03:11:54;14.70;99.90
1055;DHT22;516;51.482;7.120;2023-07-13T03:17:42;14.60;99.90
1055;DHT22;516;51.482;7.120;2023-07-13T03:23:30;14.60;99.90
1055;DHT22;516;51.482;7.120;2023-07-13T03:29:18;14.70;99.90
1055;DHT22;516;51.482;7.120;2023-07-13T03:35:06;14.60;99.90
1055;DHT22;516;51.482;7.120;2023-07-13T03:40:55;14.50;99.90
1055;DHT22;516;51.482;7.120;2023-07-13T03:46:43;14.60;99.90
1055;DHT22;516;51.482;7.120;2023-07-13T03:52:31;14.50;99.90
1055;DHT22;516;51.482;7.120;2023-07-13T03:58:39;14.50;99.90
1055;DHT22;516;51.482;7.120;2023-07-13T04:04:46;14.80;99.90
1055;DHT22;516;51.482;7.120;2023-07-13T04:10:34;15.00;99.90
1055;DHT22;516;51.482;7.120;2023-07-13T04:16:22;15.10;99.90
1055;DHT22;516;51.482;7.120;2023-07-13T04:22:10;15.30;99.90
1055;DHT22;516;51.482;7.120;2023-07-13T04:27:57;15.30;99.90
1055;DHT22;516;51.482;7.120;2023-07-13T04:33:45;15.30;99.90
1055;DHT22;516;51.482;7.120;2023-07-13T04:39:32;15.50;99.90
1055;DHT22;516;51.482;7.120;2023-07-13T04:45:20;15.80;99.90
1055;DHT22;516;51.482;7.120;2023-07-13T04:51:08;15.80;99.90
1055;DHT22;516;51.482;7.120;2023-07-13T04:56:56;15.80;99.90
1055;DHT22;516;51.482;7.120;2023-07-13T05:02:44;16.10;99.90
1055;DHT22;516;51.482;7.120;2023-07-13T05:08:32;16.00;99.90
1055;DHT22;516;51.482;7.120;2023-07-13T05:14:19;16.30;99.90
1055;DHT22;516;51.482;7.120;2023-07-13T05:20:09;16.30;99.90
1055;DHT22;516;51.482;7.120;2023-07-13T05:25:57;16.40;99.90
1055;DHT22;516;51.482;7.120;2023-07-13T05:31:45;16.80;99.90
1055;DHT22;516;51.482;7.120;2023-07-13T05:37:33;16.70;99.90
1055;DHT22;516;51.482;7.120;2023-07-13T05:43:21;16.90;99.90
1055;DHT22;516;51.482;7.120;2023-07-13T05:49:09;16.90;99.90
1055;DHT22;516;51.482;7.120;2023-07-13T05:54:57;16.80;99.90
1055;DHT22;516;51.482;7.120;2023-07-13T06:00:46;17.20;99.90
1055;DHT22;516;51.482;7.120;2023-07-13T06:10:34;17.20;99.90
1055;DHT22;516;51.482;7.120;2023-07-13T06:16:23;17.20;99.90
1055;DHT22;516;51.482;7.120;2023-07-13T06:22:11;17.30;99.90
1055;DHT22;516;51.482;7.120;2023-07-13T06:27:58;18.40;99.90
1055;DHT22;516;51.482;7.120;2023-07-13T06:33:46;19.30;99.90
1055;DHT22;516;51.482;7.120;2023-07-13T06:39:34;18.80;99.90
1055;DHT22;516;51.482;7.120;2023-07-13T06:45:22;18.50;99.90
1055;DHT22;516;51.482;7.120;2023-07-13T06:51:10;19.70;99.90
1055;DHT22;516;51.482;7.120;2023-07-13T06:56:59;18.90;99.90
1055;DHT22;516;51.482;7.120;2023-07-13T07:02:46;18.80;99.90
1055;DHT22;516;51.482;7.120;2023-07-13T07:08:35;19.60;99.90
1055;DHT22;516;51.482;7.120;2023-07-13T07:14:23;20.10;99.90
1055;DHT22;516;51.482;7.120;2023-07-13T07:20:11;20.90;91.50
1055;DHT22;516;51.482;7.120;2023-07-13T07:25:43;19.50;92.60
1055;DHT22;516;51.482;7.120;2023-07-13T07:31:31;20.90;60.40
1055;DHT22;516;51.482;7.120;2023-07-13T07:37:19;20.40;68.20
1055;DHT22;516;51.482;7.120;2023-07-13T07:43:11;20.10;79.40
1055;DHT22;516;51.482;7.120;2023-07-13T07:48:59;20.60;58.60
1055;DHT22;516;51.482;7.120;2023-07-13T07:54:46;19.50;99.90
1055;DHT22;516;51.482;7.120;2023-07-13T08:00:35;20.10;99.90
1055;DHT22;516;51.482;7.120;2023-07-13T08:16:23;21.00;60.60
1055;DHT22;516;51.482;7.120;2023-07-13T08:22:11;20.90;31.60
1055;DHT22;516;51.482;7.120;2023-07-13T08:27:59;21.80;40.60
1055;DHT22;516;51.482;7.120;2023-07-13T08:33:47;20.20;64.40
1055;DHT22;516;51.482;7.120;2023-07-13T08:39:35;20.70;81.40
1055;DHT22;516;51.482;7.120;2023-07-13T08:45:33;21.20;53.40
1055;DHT22;516;51.482;7.120;2023-07-13T08:51:49;20.40;56.20
1055;DHT22;516;51.482;7.120;2023-07-13T08:57:40;20.20;59.00
1055;DHT22;516;51.482;7.120;2023-07-13T09:03:50;21.60;38.10
1055;DHT22;516;51.482;7.120;2023-07-13T09:19:33;20.70;40.70
1055;DHT22;516;51.482;7.120;2023-07-13T09:31:53;21.80;33.00
1055;DHT22;516;51.482;7.120;2023-07-13T09:37:44;22.10;16.10
1055;DHT22;516;51.482;7.120;2023-07-13T09:43:32;22.10;20.80
1055;DHT22;516;51.482;7.120;2023-07-13T09:49:26;21.50;35.10
1055;DHT22;516;51.482;7.120;2023-07-13T10:01:59;21.50;30.70
1055;DHT22;516;51.482;7.120;2023-07-13T10:07:48;21.50;43.60
1055;DHT22;516;51.482;7.120;2023-07-13T10:13:42;21.20;42.30
1055;DHT22;516;51.482;7.120;2023-07-13T10:16:57;22.10;24.80
1055;DHT22;516;51.482;7.120;2023-07-13T10:23:02;22.20;20.00
1055;DHT22;516;51.482;7.120;2023-07-13T10:28:54;21.30;26.50
1055;DHT22;516;51.482;7.120;2023-07-13T10:34:46;20.90;38.90
1055;DHT22;516;51.482;7.120;2023-07-13T10:40:42;21.20;41.20
1055;DHT22;516;51.482;7.120;2023-07-13T10:46:49;21.80;27.60
1055;DHT22;516;51.482;7.120;2023-07-13T10:52:48;23.20;1.30
1055;DHT22;516;51.482;7.120;2023-07-13T10:58:42;22.20;6.80
1055;DHT22;516;51.482;7.120;2023-07-13T11:17:53;23.70;1.00
1055;DHT22;516;51.482;7.120;2023-07-13T11:30:13;23.80;1.00
1055;DHT22;516;51.482;7.120;2023-07-13T11:36:27;23.50;1.00
1055;DHT22;516;51.482;7.120;2023-07-13T11:42:18;23.50;1.00
1055;DHT22;516;51.482;7.120;2023-07-13T11:48:26;24.60;1.00
1055;DHT22;516;51.482;7.120;2023-07-13T12:00:45;24.40;1.00
1055;DHT22;516;51.482;7.120;2023-07-13T12:06:35;24.30;1.00
1055;DHT22;516;51.482;7.120;2023-07-13T12:12:29;24.50;1.00
1055;DHT22;516;51.482;7.120;2023-07-13T12:18:22;24.00;1.00
1055;DHT22;516;51.482;7.120;2023-07-13T12:24:16;24.60;1.00
1055;DHT22;516;51.482;7.120;2023-07-13T12:36:35;24.80;1.00
1055;DHT22;516;51.482;7.120;2023-07-13T12:42:26;24.00;1.00
1055;DHT22;516;51.482;7.120;2023-07-13T12:48:17;24.60;1.00
1055;DHT22;516;51.482;7.120;2023-07-13T12:54:18;24.70;1.00
1055;DHT22;516;51.482;7.120;2023-07-13T13:06:44;23.40;1.00
1055;DHT22;516;51.482;7.120;2023-07-13T13:19:28;22.50;1.00
1055;DHT22;516;51.482;7.120;2023-07-13T13:24:57;22.10;1.00
1055;DHT22;516;51.482;7.120;2023-07-13T13:30:47;22.20;1.00
1055;DHT22;516;51.482;7.120;2023-07-13T13:36:35;19.80;80.80
1055;DHT22;516;51.482;7.120;2023-07-13T13:42:23;18.50;99.90
1055;DHT22;516;51.482;7.120;2023-07-13T13:48:17;18.40;99.90
1055;DHT22;516;51.482;7.120;2023-07-13T13:54:13;19.10;99.90
1055;DHT22;516;51.482;7.120;2023-07-13T14:00:20;19.70;99.90
1055;DHT22;516;51.482;7.120;2023-07-13T14:06:12;20.00;99.90
1055;DHT22;516;51.482;7.120;2023-07-13T14:12:00;20.90;99.90
1055;DHT22;516;51.482;7.120;2023-07-13T14:17:49;20.90;99.90
1055;DHT22;516;51.482;7.120;2023-07-13T14:26:59;19.90;99.90
1055;DHT22;516;51.482;7.120;2023-07-13T14:32:47;19.50;99.90
1055;DHT22;516;51.482;7.120;2023-07-13T14:38:36;19.90;99.90
1055;DHT22;516;51.482;7.120;2023-07-13T14:44:29;19.90;99.90
1055;DHT22;516;51.482;7.120;2023-07-13T14:50:20;19.60;99.90
1055;DHT22;516;51.482;7.120;2023-07-13T14:56:13;19.60;99.90
1055;DHT22;516;51.482;7.120;2023-07-13T15:02:02;20.10;99.90
1055;DHT22;516;51.482;7.120;2023-07-13T15:07:51;20.90;99.90
1055;DHT22;516;51.482;7.120;2023-07-13T15:13:40;21.10;99.90
1055;DHT22;516;51.482;7.120;2023-07-13T15:19:42;21.80;99.90
1055;DHT22;516;51.482;7.120;2023-07-13T15:25:31;20.70;99.90
1055;DHT22;516;51.482;7.120;2023-07-13T15:31:23;20.50;99.90
1055;DHT22;516;51.482;7.120;2023-07-13T15:37:15;20.50;99.90
1055;DHT22;516;51.482;7.120;2023-07-13T15:43:08;20.20;99.90
1055;DHT22;516;51.482;7.120;2023-07-13T15:48:57;20.20;99.90
1055;DHT22;516;51.482;7.120;2023-07-13T15:54:47;18.70;99.90
1055;DHT22;516;51.482;7.120;2023-07-13T16:00:35;17.10;99.90
1055;DHT22;516;51.482;7.120;2023-07-13T16:06:30;16.80;99.90
1055;DHT22;516;51.482;7.120;2023-07-13T16:12:37;17.10;99.90
1055;DHT22;516;51.482;7.120;2023-07-13T16:21:50;17.40;99.90
1055;DHT22;516;51.482;7.120;2023-07-13T16:27:38;17.60;99.90
1055;DHT22;516;51.482;7.120;2023-07-13T16:33:26;17.70;99.90
1055;DHT22;516;51.482;7.120;2023-07-13T16:39:15;17.70;99.90
1055;DHT22;516;51.482;7.120;2023-07-13T16:45:03;18.00;99.90
1055;DHT22;516;51.482;7.120;2023-07-13T16:50:54;18.10;99.90
1055;DHT22;516;51.482;7.120;2023-07-13T16:56:43;18.20;99.90
1055;DHT22;516;51.482;7.120;2023-07-13T17:02:35;18.30;99.90
1055;DHT22;516;51.482;7.120;2023-07-13T17:08:25;18.50;99.90
1055;DHT22;516;51.482;7.120;2023-07-13T17:14:17;18.50;99.90
1055;DHT22;516;51.482;7.120;2023-07-13T17:17:13;18.60;99.90
1055;DHT22;516;51.482;7.120;2023-07-13T17:19:40;18.70;99.90
1055;DHT22;516;51.482;7.120;2023-07-13T17:25:28;18.60;99.90
1055;DHT22;516;51.482;7.120;2023-07-13T17:31:20;18.70;99.90
1055;DHT22;516;51.482;7.120;2023-07-13T17:37:15;18.70;99.90
1055;DHT22;516;51.482;7.120;2023-07-13T17:43:03;18.70;99.90
1055;DHT22;516;51.482;7.120;2023-07-13T17:48:53;18.80;99.90
1055;DHT22;516;51.482;7.120;2023-07-13T17:54:41;18.60;99.90
1055;DHT22;516;51.482;7.120;2023-07-13T18:00:35;18.60;99.90
1055;DHT22;516;51.482;7.120;2023-07-13T18:12:51;18.50;99.90
1055;DHT22;516;51.482;7.120;2023-07-13T18:28:35;18.50;99.90
1055;DHT22;516;51.482;7.120;2023-07-13T18:34:23;18.10;99.90
1055;DHT22;516;51.482;7.120;2023-07-13T18:40:14;18.10;99.90
1055;DHT22;516;51.482;7.120;2023-07-13T18:52:37;17.60;99.90
1055;DHT22;516;51.482;7.120;2023-07-13T18:58:25;17.50;99.90
1055;DHT22;516;51.482;7.120;2023-07-13T19:10:17;17.30;99.90
1055;DHT22;516;51.482;7.120;2023-07-13T19:16:05;17.00;99.90
1055;DHT22;516;51.482;7.120;2023-07-13T19:21:54;17.00;99.90
1055;DHT22;516;51.482;7.120;2023-07-13T19:27:44;16.80;99.90
1055;DHT22;516;51.482;7.120;2023-07-13T19:33:32;16.50;99.90
1055;DHT22;516;51.482;7.120;2023-07-13T19:45:22;16.30;99.90
1055;DHT22;516;51.482;7.120;2023-07-13T19:51:17;16.10;99.90
1055;DHT22;516;51.482;7.120;2023-07-13T19:57:26;16.00;99.90
1055;DHT22;516;51.482;7.120;2023-07-13T20:03:15;15.90;99.90
1055;DHT22;516;51.482;7.120;2023-07-13T20:15:37;15.70;99.90
1055;DHT22;516;51.482;7.120;2023-07-13T20:24:47;15.60;99.90
1055;DHT22;516;51.482;7.120;2023-07-13T20:30:39;15.60;99.90
1055;DHT22;516;51.482;7.120;2023-07-13T20:36:27;15.60;99.90
1055;DHT22;516;51.482;7.120;2023-07-13T20:42:16;15.60;99.90
1055;DHT22;516;51.482;7.120;2023-07-13T20:54:13;15.90;99.90
1055;DHT22;516;51.482;7.120;2023-07-13T21:00:01;16.10;99.90
1055;DHT22;516;51.482;7.120;2023-07-13T21:05:49;16.10;99.90
1055;DHT22;516;51.482;7.120;2023-07-13T21:11:37;16.10;99.90
1055;DHT22;516;51.482;7.120;2023-07-13T21:17:30;16.20;99.90
1055;DHT22;516;51.482;7.120;2023-07-13T21:20:18;16.30;99.90
1055;DHT22;516;51.482;7.120;2023-07-13T21:22:44;16.10;99.90
1055;DHT22;516;51.482;7.120;2023-07-13T21:28:40;16.10;99.90
1055;DHT22;516;51.482;7.120;2023-07-13T21:34:28;16.20;99.90
1055;DHT22;516;51.482;7.120;2023-07-13T21:40:18;16.00;99.90
1055;DHT22;516;51.482;7.120;2023-07-13T21:46:11;16.00;99.90
1055;DHT22;516;51.482;7.120;2023-07-13T21:52:00;15.90;99.90
1055;DHT22;516;51.482;7.120;2023-07-13T21:57:51;15.70;99.90
1055;DHT22;516;51.482;7.120;2023-07-13T22:03:40;15.70;99.90
1055;DHT22;516;51.482;7.120;2023-07-13T22:09:28;15.40;99.90
1055;DHT22;516;51.482;7.120;2023-07-13T22:15:16;15.30;99.90
1055;DHT22;516;51.482;7.120;2023-07-13T22:24:46;15.10;99.90
1055;DHT22;516;51.482;7.120;2023-07-13T22:30:35;15.00;99.90
1055;DHT22;516;51.482;7.120;2023-07-13T22:36:23;14.80;99.90
1055;DHT22;516;51.482;7.120;2023-07-13T22:42:11;14.70;99.90
1055;DHT22;516;51.482;7.120;2023-07-13T22:47:59;14.70;99.90
1055;DHT22;516;51.482;7.120;2023-07-13T22:53:47;14.60;99.90
1055;DHT22;516;51.482;7.120;2023-07-13T22:59:36;14.40;99.90
1055;DHT22;516;51.482;7.120;2023-07-13T23:05:24;14.50;99.90
1055;DHT22;516;51.482;7.120;2023-07-13T23:11:13;14.50;99.90
1055;DHT22;516;51.482;7.120;2023-07-13T23:17:01;14.80;99.90
1055;DHT22;516;51.482;7.120;2023-07-13T23:22:41;14.90;99.90
1055;DHT22;516;51.482;7.120;2023-07-13T23:28:29;15.00;99.90
1055;DHT22;516;51.482;7.120;2023-07-13T23:34:17;14.70;99.90
1055;DHT22;516;51.482;7.120;2023-07-13T23:40:20;14.60;99.90
1055;DHT22;516;51.482;7.120;2023-07-13T23:52:23;14.40;99.90
1055;DHT22;516;51.482;7.120;2023-07-13T23:58:11;14.30;99.90
